createdAt,value
2022-11-10T00:00:40.937Z,26.40
2022-11-10T00:03:11.132Z,26.40
2022-11-10T00:05:40.122Z,26.40
2022-11-10T00:08:12.659Z,26.40
2022-11-10T00:10:55.793Z,26.40
2022-11-10T00:13:25.603Z,26.40
2022-11-10T00:16:11.489Z,26.40
2022-11-10T00:18:39.727Z,26.40
2022-11-10T00:21:10.114Z,26.30
2022-11-10T00:23:39.658Z,26.30
2022-11-10T00:26:14.788Z,26.30
2022-11-10T00:28:43.564Z,26.30
2022-11-10T00:31:12.300Z,26.30
2022-11-10T00:33:42.444Z,26.30
2022-11-10T00:36:10.971Z,26.30
2022-11-10T00:38:40.115Z,26.30
2022-11-10T00:41:07.868Z,26.30
2022-11-10T00:43:35.645Z,26.20
2022-11-10T00:46:03.467Z,26.30
2022-11-10T00:48:31.307Z,26.30
2022-11-10T00:50:59.840Z,26.30
2022-11-10T00:53:27.567Z,26.20
2022-11-10T00:55:56.827Z,26.20
2022-11-10T00:58:24.616Z,26.30
2022-11-10T01:00:52.390Z,26.20
2022-11-10T01:03:20.414Z,26.20
2022-11-10T01:05:48.649Z,26.20
2022-11-10T01:08:16.395Z,26.20
2022-11-10T01:10:44.180Z,26.20
2022-11-10T01:13:13.337Z,26.20
2022-11-10T01:15:42.133Z,26.20
2022-11-10T01:18:10.214Z,26.20
2022-11-10T01:20:38.857Z,26.20
2022-11-10T01:23:06.600Z,26.20
2022-11-10T01:25:34.347Z,26.20
2022-11-10T01:28:02.120Z,26.20
2022-11-10T01:30:31.245Z,26.20
2022-11-10T01:32:59.133Z,26.20
2022-11-10T01:35:26.872Z,26.20
2022-11-10T01:37:54.714Z,26.20
2022-11-10T01:40:22.621Z,26.10
2022-11-10T01:42:53.478Z,26.10
2022-11-10T01:45:50.390Z,26.10
2022-11-10T01:48:29.540Z,26.10
2022-11-10T01:51:01.598Z,26.10
2022-11-10T01:53:32.905Z,26.10
2022-11-10T01:56:01.410Z,26.10
2022-11-10T01:58:39.995Z,26.10
2022-11-10T02:01:10.240Z,26.10
2022-11-10T02:03:44.755Z,26.10
2022-11-10T02:06:14.742Z,26.10
2022-11-10T02:08:43.889Z,26.10
2022-11-10T02:11:12.723Z,26.10
2022-11-10T02:13:41.266Z,26.10
2022-11-10T02:16:11.670Z,26.00
2022-11-10T02:18:39.720Z,26.00
2022-11-10T02:21:09.645Z,26.00
2022-11-10T02:23:50.576Z,26.00
2022-11-10T02:26:23.994Z,26.00
2022-11-10T02:28:51.762Z,26.00
2022-11-10T02:31:19.671Z,26.00
2022-11-10T02:33:47.596Z,26.00
2022-11-10T02:36:16.701Z,26.00
2022-11-10T02:38:44.433Z,26.00
2022-11-10T02:41:12.223Z,26.00
2022-11-10T02:43:40.504Z,26.00
2022-11-10T02:46:08.267Z,26.00
2022-11-10T02:48:36.004Z,26.00
2022-11-10T02:51:03.943Z,25.90
2022-11-10T02:53:33.001Z,25.90
2022-11-10T02:56:00.815Z,25.90
2022-11-10T02:58:28.487Z,25.90
2022-11-10T03:00:56.306Z,25.90
2022-11-10T03:03:24.477Z,25.90
2022-11-10T03:05:52.385Z,25.90
2022-11-10T03:08:20.053Z,25.90
2022-11-10T03:10:49.208Z,25.90
2022-11-10T03:13:16.880Z,25.90
2022-11-10T03:15:44.591Z,25.90
2022-11-10T03:18:12.267Z,25.90
2022-11-10T03:20:41.119Z,25.90
2022-11-10T03:23:09.089Z,25.90
2022-11-10T03:25:37.337Z,25.90
2022-11-10T03:28:06.412Z,25.90
2022-11-10T03:30:34.237Z,25.90
2022-11-10T03:33:02.027Z,25.80
2022-11-10T03:35:29.750Z,25.80
2022-11-10T03:37:57.538Z,25.80
2022-11-10T03:40:25.343Z,25.80
2022-11-10T03:42:53.297Z,25.80
2022-11-10T03:45:22.426Z,25.80
2022-11-10T03:47:51.307Z,25.80
2022-11-10T03:50:19.309Z,25.80
2022-11-10T03:52:47.879Z,25.80
2022-11-10T03:55:19.069Z,25.80
2022-11-10T03:57:46.861Z,25.80
2022-11-10T04:00:16.330Z,25.80
2022-11-10T04:02:45.541Z,25.80
2022-11-10T04:05:31.024Z,25.80
2022-11-10T04:08:18.603Z,25.70
2022-11-10T04:10:46.927Z,25.70
2022-11-10T04:13:32.261Z,25.70
2022-11-10T04:16:00.103Z,25.70
2022-11-10T04:18:29.712Z,25.70
2022-11-10T04:21:00.223Z,25.70
2022-11-10T04:23:34.727Z,25.70
2022-11-10T04:26:23.521Z,25.70
2022-11-10T04:28:54.536Z,25.70
2022-11-10T04:31:23.902Z,25.70
2022-11-10T04:33:54.859Z,25.70
2022-11-10T04:36:25.513Z,25.70
2022-11-10T04:38:55.297Z,25.70
2022-11-10T04:41:24.397Z,25.70
2022-11-10T04:43:53.159Z,25.70
2022-11-10T04:46:29.022Z,25.60
2022-11-10T04:48:58.891Z,25.60
2022-11-10T04:51:29.334Z,25.60
2022-11-10T04:53:57.728Z,25.60
2022-11-10T04:56:27.092Z,25.60
2022-11-10T04:58:55.856Z,25.60
2022-11-10T05:01:26.904Z,25.60
2022-11-10T05:03:56.343Z,25.60
2022-11-10T05:06:26.142Z,25.60
2022-11-10T05:08:54.011Z,25.60
2022-11-10T05:11:21.943Z,25.60
2022-11-10T05:13:49.785Z,25.60
2022-11-10T05:16:17.605Z,25.50
2022-11-10T05:18:45.447Z,25.50
2022-11-10T05:21:13.286Z,25.50
2022-11-10T05:23:44.064Z,25.50
2022-11-10T05:26:15.667Z,25.50
2022-11-10T05:28:46.625Z,25.50
2022-11-10T05:31:14.747Z,25.50
2022-11-10T05:33:42.689Z,25.50
2022-11-10T05:36:11.998Z,25.50
2022-11-10T05:38:43.711Z,25.50
2022-11-10T05:41:12.316Z,25.50
2022-11-10T05:43:40.265Z,25.50
2022-11-10T05:46:08.182Z,25.50
2022-11-10T05:48:36.005Z,25.50
2022-11-10T05:51:03.907Z,25.50
2022-11-10T05:53:31.790Z,25.50
2022-11-10T05:56:01.205Z,25.50
2022-11-10T05:58:29.091Z,25.50
2022-11-10T06:00:57.211Z,25.50
2022-11-10T06:03:25.466Z,25.50
2022-11-10T06:05:53.538Z,25.50
2022-11-10T06:08:21.856Z,25.50
2022-11-10T06:10:49.860Z,25.50
2022-11-10T06:13:19.106Z,25.50
2022-11-10T06:15:50.400Z,25.60
2022-11-10T06:18:18.769Z,25.60
2022-11-10T06:20:47.617Z,25.60
2022-11-10T06:23:16.065Z,25.60
2022-11-10T06:25:44.616Z,25.60
2022-11-10T06:28:12.891Z,25.60
2022-11-10T06:30:42.205Z,25.60
2022-11-10T06:33:10.783Z,25.70
2022-11-10T06:35:38.669Z,25.70
2022-11-10T06:38:10.494Z,25.70
2022-11-10T06:40:38.548Z,25.70
2022-11-10T06:43:06.329Z,25.70
2022-11-10T06:45:34.180Z,25.70
2022-11-10T06:48:06.531Z,25.70
2022-11-10T06:50:34.667Z,25.70
2022-11-10T06:53:03.236Z,25.70
2022-11-10T06:55:31.536Z,25.80
2022-11-10T06:57:59.783Z,25.80
2022-11-10T07:00:29.766Z,25.80
2022-11-10T07:03:04.165Z,25.80
2022-11-10T07:05:34.423Z,25.80
2022-11-10T07:08:07.121Z,25.80
2022-11-10T07:10:36.432Z,25.80
2022-11-10T07:13:06.093Z,25.80
2022-11-10T07:15:34.779Z,25.80
2022-11-10T07:18:05.091Z,25.80
2022-11-10T07:20:33.516Z,25.90
2022-11-10T07:23:03.017Z,25.90
2022-11-10T07:25:35.491Z,25.90
2022-11-10T07:28:06.434Z,25.90
2022-11-10T07:30:35.999Z,25.90
2022-11-10T07:33:07.911Z,25.90
2022-11-10T07:35:36.046Z,25.90
2022-11-10T07:38:07.116Z,25.90
2022-11-10T07:40:35.649Z,26.00
2022-11-10T07:43:04.014Z,26.00
2022-11-10T07:45:32.865Z,26.00
2022-11-10T07:48:01.669Z,26.00
2022-11-10T07:50:30.903Z,26.00
2022-11-10T07:53:06.850Z,26.00
2022-11-10T07:55:35.476Z,26.00
2022-11-10T07:58:03.320Z,26.00
2022-11-10T08:00:32.356Z,26.00
2022-11-10T08:03:05.006Z,26.00
2022-11-10T08:05:35.417Z,26.00
2022-11-10T08:08:03.505Z,26.00
2022-11-10T08:10:32.771Z,26.10
2022-11-10T08:13:02.927Z,26.10
2022-11-10T08:15:32.860Z,26.10
2022-11-10T08:18:01.209Z,26.10
2022-11-10T08:20:30.143Z,26.10
2022-11-10T08:23:01.349Z,26.10
2022-11-10T08:25:34.784Z,26.10
2022-11-10T08:28:06.406Z,26.10
2022-11-10T08:30:36.463Z,26.10
2022-11-10T08:33:07.769Z,26.10
2022-11-10T08:35:38.086Z,26.20
2022-11-10T08:38:13.626Z,26.20
2022-11-10T08:40:42.836Z,26.20
2022-11-10T08:43:12.704Z,26.20
2022-11-10T08:45:43.424Z,26.20
2022-11-10T08:48:14.091Z,26.20
2022-11-10T08:50:43.051Z,26.20
2022-11-10T08:53:15.508Z,26.20
2022-11-10T08:55:45.415Z,26.20
2022-11-10T08:58:15.820Z,26.30
2022-11-10T09:00:44.154Z,26.30
2022-11-10T09:03:15.764Z,26.30
2022-11-10T09:05:44.224Z,26.30
2022-11-10T09:08:14.404Z,26.30
2022-11-10T09:10:44.511Z,26.30
2022-11-10T09:13:15.004Z,26.30
2022-11-10T09:15:44.345Z,26.30
2022-11-10T09:18:15.396Z,26.30
2022-11-10T09:20:43.904Z,26.30
2022-11-10T09:23:16.858Z,26.30
2022-11-10T09:25:51.256Z,26.30
2022-11-10T09:28:20.777Z,26.40
2022-11-10T09:30:50.686Z,26.40
2022-11-10T09:33:19.011Z,26.40
2022-11-10T09:35:47.210Z,26.40
2022-11-10T09:38:16.428Z,26.40
2022-11-10T09:40:58.130Z,26.40
2022-11-10T09:43:35.088Z,26.40
2022-11-10T09:46:14.396Z,26.40
2022-11-10T09:48:48.953Z,26.40
2022-11-10T09:51:25.018Z,26.40
2022-11-10T09:53:58.934Z,26.40
2022-11-10T09:56:34.115Z,26.40
2022-11-10T09:59:07.749Z,26.40
2022-11-10T10:01:49.634Z,26.50
2022-11-10T10:04:42.026Z,26.50
2022-11-10T10:07:19.155Z,26.50
2022-11-10T10:10:01.669Z,26.50
2022-11-10T10:13:01.265Z,26.50
2022-11-10T10:15:37.985Z,26.50
2022-11-10T10:18:21.939Z,26.50
2022-11-10T10:21:21.794Z,26.50
2022-11-10T10:24:12.829Z,26.50
2022-11-10T10:26:48.046Z,26.50
2022-11-10T10:29:22.793Z,26.50
2022-11-10T10:31:53.304Z,26.60
2022-11-10T10:34:25.779Z,26.60
2022-11-10T10:36:53.584Z,26.60
2022-11-10T10:39:30.295Z,26.60
2022-11-10T10:41:59.851Z,26.60
2022-11-10T10:44:33.802Z,26.60
2022-11-10T10:47:04.462Z,26.60
2022-11-10T10:49:34.511Z,26.70
2022-11-10T10:52:10.849Z,26.70
2022-11-10T10:54:40.520Z,26.70
2022-11-10T10:57:28.194Z,26.70
2022-11-10T11:00:21.421Z,26.70
2022-11-10T11:03:04.670Z,26.70
2022-11-10T11:05:33.213Z,26.80
2022-11-10T11:08:03.261Z,26.80
2022-11-10T11:10:35.189Z,26.80
2022-11-10T11:13:22.088Z,26.80
2022-11-10T11:15:59.382Z,26.80
2022-11-10T11:18:30.429Z,26.80
2022-11-10T11:21:07.248Z,26.80
2022-11-10T11:23:54.926Z,26.90
2022-11-10T11:26:37.094Z,26.90
2022-11-10T11:29:24.027Z,26.90
2022-11-10T11:32:09.327Z,26.90
2022-11-10T11:34:48.059Z,26.90
2022-11-10T11:37:25.986Z,27.00
2022-11-10T11:40:15.186Z,27.00
2022-11-10T11:42:59.995Z,27.00
2022-11-10T11:45:46.757Z,27.00
2022-11-10T11:48:36.767Z,27.10
2022-11-10T11:51:17.859Z,27.10
2022-11-10T11:54:08.243Z,27.10
2022-11-10T11:56:42.146Z,27.10
2022-11-10T11:59:28.202Z,27.20
2022-11-10T12:02:33.449Z,27.20
2022-11-10T12:05:18.234Z,27.20
2022-11-10T12:08:00.353Z,27.20
2022-11-10T12:10:43.554Z,27.30
2022-11-10T12:13:37.981Z,27.30
2022-11-10T12:16:20.162Z,27.30
2022-11-10T12:19:03.555Z,27.30
2022-11-10T12:21:43.392Z,27.30
2022-11-10T12:24:39.605Z,27.30
2022-11-10T12:27:17.567Z,27.30
2022-11-10T12:29:51.717Z,27.40
2022-11-10T12:32:27.194Z,27.40
2022-11-10T12:35:04.238Z,27.40
2022-11-10T12:37:39.903Z,27.40
2022-11-10T12:40:19.866Z,27.40
2022-11-10T12:42:56.947Z,27.40
2022-11-10T12:45:29.140Z,27.40
2022-11-10T12:47:58.491Z,27.40
2022-11-10T12:50:42.309Z,27.50
2022-11-10T12:53:22.912Z,27.50
2022-11-10T12:55:56.660Z,27.50
2022-11-10T12:58:26.735Z,27.50
2022-11-10T13:01:01.849Z,27.50
2022-11-10T13:03:33.364Z,27.50
2022-11-10T13:06:04.860Z,27.50
2022-11-10T13:08:36.905Z,27.50
2022-11-10T13:11:21.381Z,27.50
2022-11-10T13:13:59.714Z,27.50
2022-11-10T13:16:51.169Z,27.50
2022-11-10T13:19:51.089Z,27.50
2022-11-10T13:22:37.634Z,27.60
2022-11-10T13:26:05.823Z,27.60
2022-11-10T13:29:01.881Z,27.50
2022-11-10T13:31:41.912Z,27.50
2022-11-10T13:34:12.904Z,27.50
2022-11-10T13:36:43.074Z,27.60
2022-11-10T13:39:26.807Z,27.60
2022-11-10T13:42:03.068Z,27.60
2022-11-10T13:44:34.036Z,27.60
2022-11-10T13:47:20.260Z,27.60
2022-11-10T13:50:03.587Z,27.60
2022-11-10T13:52:49.524Z,27.60
2022-11-10T13:55:48.372Z,27.60
2022-11-10T13:58:26.137Z,27.60
2022-11-10T14:01:26.121Z,27.60
2022-11-10T14:04:00.443Z,27.60
2022-11-10T14:06:41.985Z,27.60
2022-11-10T14:09:26.959Z,27.60
2022-11-10T14:12:01.393Z,27.60
2022-11-10T14:14:38.863Z,27.60
2022-11-10T14:17:20.082Z,27.60
2022-11-10T14:19:48.989Z,27.60
2022-11-10T14:22:27.282Z,27.60
2022-11-10T14:25:03.573Z,27.60
2022-11-10T14:27:36.670Z,27.60
2022-11-10T14:30:21.696Z,27.60
2022-11-10T14:32:58.001Z,27.70
2022-11-10T14:35:29.157Z,27.70
2022-11-10T14:38:02.620Z,27.60
2022-11-10T14:40:31.908Z,27.70
2022-11-10T14:43:01.271Z,27.70
2022-11-10T14:45:30.569Z,27.70
2022-11-10T14:48:01.061Z,27.70
2022-11-10T14:50:31.927Z,27.70
2022-11-10T14:53:07.538Z,27.70
2022-11-10T14:55:37.192Z,27.70
2022-11-10T14:58:13.559Z,27.70
2022-11-10T15:00:44.341Z,27.70
2022-11-10T15:03:18.302Z,27.70
2022-11-10T15:05:46.284Z,27.70
2022-11-10T15:08:16.224Z,27.70
2022-11-10T15:10:48.511Z,27.70
2022-11-10T15:13:36.210Z,27.70
2022-11-10T15:16:26.410Z,27.70
2022-11-10T15:18:57.436Z,27.70
2022-11-10T15:21:33.951Z,27.70
2022-11-10T15:24:06.884Z,27.70
2022-11-10T15:26:41.339Z,27.70
2022-11-10T15:29:22.554Z,27.70
2022-11-10T15:31:53.020Z,27.70
2022-11-10T15:34:41.518Z,27.70
2022-11-10T15:37:30.900Z,27.70
2022-11-10T15:40:34.390Z,27.70
2022-11-10T15:43:14.957Z,27.70
2022-11-10T15:45:45.634Z,27.70
2022-11-10T15:48:16.419Z,27.70
2022-11-10T15:50:47.952Z,27.70
2022-11-10T15:53:22.948Z,27.70
2022-11-10T15:55:51.013Z,27.70
2022-11-10T15:58:22.604Z,27.70
2022-11-10T16:00:52.035Z,27.70
2022-11-10T16:03:23.654Z,27.70
2022-11-10T16:05:51.661Z,27.70
2022-11-10T16:08:23.899Z,27.70
2022-11-10T16:10:57.406Z,27.70
2022-11-10T16:13:28.091Z,27.70
2022-11-10T16:15:58.971Z,27.70
2022-11-10T16:18:29.267Z,27.70
2022-11-10T16:20:57.572Z,27.70
2022-11-10T16:23:27.106Z,27.70
2022-11-10T16:25:58.071Z,27.70
2022-11-10T16:28:28.269Z,27.70
2022-11-10T16:30:57.584Z,27.70
2022-11-10T16:33:27.909Z,27.60
2022-11-10T16:35:56.796Z,27.60
2022-11-10T16:38:27.982Z,27.60
2022-11-10T16:41:01.422Z,27.60
2022-11-10T16:43:31.443Z,27.60
2022-11-10T16:46:05.662Z,27.50
2022-11-10T16:48:37.535Z,27.50
2022-11-10T16:51:05.828Z,27.50
2022-11-10T16:53:33.704Z,27.50
2022-11-10T16:56:01.465Z,27.50
2022-11-10T16:58:29.448Z,27.50
2022-11-10T17:01:03.598Z,27.50
2022-11-10T17:03:36.661Z,27.40
2022-11-10T17:06:05.270Z,27.40
2022-11-10T17:08:36.821Z,27.40
2022-11-10T17:11:06.516Z,27.40
2022-11-10T17:13:34.506Z,27.40
2022-11-10T17:16:14.775Z,27.40
2022-11-10T17:18:58.722Z,27.30
2022-11-10T17:21:32.721Z,27.40
2022-11-10T17:24:02.803Z,27.30
2022-11-10T17:26:31.770Z,27.30
2022-11-10T17:28:59.749Z,27.30
2022-11-10T17:31:28.989Z,27.30
2022-11-10T17:33:56.756Z,27.30
2022-11-10T17:36:25.228Z,27.30
2022-11-10T17:38:53.593Z,27.20
2022-11-10T17:41:22.053Z,27.20
2022-11-10T17:43:49.857Z,27.20
2022-11-10T17:46:17.774Z,27.20
2022-11-10T17:48:47.828Z,27.20
2022-11-10T17:51:21.945Z,27.20
2022-11-10T17:53:51.048Z,27.20
2022-11-10T17:56:19.137Z,27.20
2022-11-10T17:58:46.967Z,27.20
2022-11-10T18:01:22.098Z,27.10
2022-11-10T18:03:51.909Z,27.10
2022-11-10T18:06:21.579Z,27.10
2022-11-10T18:08:49.658Z,27.10
2022-11-10T18:11:19.409Z,27.10
2022-11-10T18:13:47.487Z,27.10
2022-11-10T18:16:15.805Z,27.10
2022-11-10T18:18:44.194Z,27.00
2022-11-10T18:21:13.602Z,27.00
2022-11-10T18:23:44.734Z,27.00
2022-11-10T18:26:12.646Z,27.00
2022-11-10T18:28:42.043Z,27.00
2022-11-10T18:31:13.046Z,27.00
2022-11-10T18:33:41.407Z,26.90
2022-11-10T18:36:10.201Z,26.90
2022-11-10T18:38:39.441Z,26.90
2022-11-10T18:41:22.351Z,26.90
2022-11-10T18:43:50.171Z,26.90
2022-11-10T18:46:18.016Z,26.90
2022-11-10T18:48:46.239Z,26.90
2022-11-10T18:51:14.155Z,26.90
2022-11-10T18:53:43.353Z,26.80
2022-11-10T18:56:11.294Z,26.80
2022-11-10T18:58:39.211Z,26.80
2022-11-10T19:01:09.236Z,26.80
2022-11-10T19:06:25.235Z,26.80
2022-11-10T19:08:56.280Z,26.80
2022-11-10T19:11:24.118Z,26.80
2022-11-10T19:13:51.908Z,26.80
2022-11-10T19:16:20.535Z,26.80
2022-11-10T19:18:48.339Z,26.80
2022-11-10T19:21:18.865Z,26.70
2022-11-10T19:23:47.235Z,26.70
2022-11-10T19:26:22.838Z,26.70
2022-11-10T19:28:53.250Z,26.70
2022-11-10T19:31:22.891Z,26.70
2022-11-10T19:33:53.724Z,26.70
2022-11-10T19:36:24.556Z,26.70
2022-11-10T19:38:54.308Z,26.70
2022-11-10T19:41:26.246Z,26.70
2022-11-10T19:43:54.620Z,26.70
2022-11-10T19:46:25.100Z,26.60
2022-11-10T19:48:54.373Z,26.60
2022-11-10T19:51:23.190Z,26.60
2022-11-10T19:53:58.825Z,26.60
2022-11-10T19:56:31.733Z,26.60
2022-11-10T19:59:00.386Z,26.60
2022-11-10T20:01:28.327Z,26.60
2022-11-10T20:03:56.298Z,26.60
2022-11-10T20:06:24.295Z,26.60
2022-11-10T20:08:52.358Z,26.60
2022-11-10T20:11:23.386Z,26.60
2022-11-10T20:13:55.539Z,26.50
2022-11-10T20:16:24.157Z,26.50
2022-11-10T20:18:52.019Z,26.50
2022-11-10T20:21:23.606Z,26.50
2022-11-10T20:23:56.413Z,26.50
2022-11-10T20:26:25.906Z,26.50
2022-11-10T20:28:55.098Z,26.50
2022-11-10T20:31:26.266Z,26.50
2022-11-10T20:33:56.252Z,26.50
2022-11-10T20:36:27.733Z,26.50
2022-11-10T20:39:00.449Z,26.50
2022-11-10T20:41:32.837Z,26.40
2022-11-10T20:44:02.350Z,26.40
2022-11-10T20:46:53.351Z,26.40
2022-11-10T20:49:18.399Z,26.40
2022-11-10T20:51:46.270Z,26.40
2022-11-10T20:54:15.040Z,26.40
2022-11-10T20:56:42.868Z,26.40
2022-11-10T20:59:12.520Z,26.40
2022-11-10T21:01:40.497Z,26.30
2022-11-10T21:04:08.387Z,26.30
2022-11-10T21:06:36.267Z,26.30
2022-11-10T21:09:05.445Z,26.30
2022-11-10T21:11:51.721Z,26.30
2022-11-10T21:14:21.146Z,26.30
2022-11-10T21:16:48.932Z,26.30
2022-11-10T21:19:16.920Z,26.30
2022-11-10T21:21:44.907Z,26.20
2022-11-10T21:24:13.390Z,26.20
2022-11-10T21:27:17.291Z,26.20
2022-11-10T21:29:46.522Z,26.20
2022-11-10T21:32:14.364Z,26.20
2022-11-10T21:34:42.271Z,26.20
2022-11-10T21:37:10.069Z,26.20
2022-11-10T21:39:38.625Z,26.20
2022-11-10T21:42:06.576Z,26.20
2022-11-10T21:44:34.445Z,26.20
2022-11-10T21:47:03.682Z,26.10
2022-11-10T21:49:31.539Z,26.10
2022-11-10T21:51:59.346Z,26.10
2022-11-10T21:54:27.222Z,26.10
2022-11-10T21:56:54.989Z,26.10
2022-11-10T21:59:22.886Z,26.10
2022-11-10T22:01:50.704Z,26.10
2022-11-10T22:04:20.076Z,26.10
2022-11-10T22:07:05.804Z,26.10
2022-11-10T22:09:51.387Z,26.00
2022-11-10T22:12:36.957Z,26.00
2022-11-10T22:15:23.154Z,26.00
2022-11-10T22:18:08.425Z,26.00
2022-11-10T22:20:37.674Z,26.00
2022-11-10T22:23:05.469Z,26.00
2022-11-10T22:25:33.309Z,26.00
2022-11-10T22:28:01.220Z,26.00
2022-11-10T22:30:29.087Z,26.00
2022-11-10T22:32:56.925Z,25.90
2022-11-10T22:35:42.399Z,25.90
2022-11-10T22:38:11.644Z,25.90
2022-11-10T22:40:56.912Z,25.90
2022-11-10T22:43:42.020Z,25.90
2022-11-10T22:46:09.916Z,25.90
2022-11-10T22:48:37.748Z,25.90
2022-11-10T22:51:05.722Z,25.90
2022-11-10T22:53:38.356Z,25.80
2022-11-10T22:56:06.693Z,25.90
2022-11-10T22:58:34.564Z,25.90
2022-11-10T23:01:07.812Z,25.80
2022-11-10T23:03:37.171Z,25.80
2022-11-10T23:06:06.419Z,25.80
2022-11-10T23:08:36.763Z,25.80
2022-11-10T23:11:08.072Z,25.80
2022-11-10T23:13:38.014Z,25.80
2022-11-10T23:16:09.466Z,25.80
2022-11-10T23:18:37.707Z,25.80
2022-11-10T23:21:09.456Z,25.80
2022-11-10T23:23:40.711Z,25.80
2022-11-10T23:26:11.998Z,25.80
2022-11-10T23:28:41.055Z,25.80
2022-11-10T23:31:13.518Z,25.70
2022-11-10T23:33:44.057Z,25.70
2022-11-10T23:36:14.228Z,25.70
2022-11-10T23:38:44.380Z,25.70
2022-11-10T23:41:15.917Z,25.70
2022-11-10T23:43:44.256Z,25.70
2022-11-10T23:46:13.074Z,25.70
2022-11-10T23:48:41.453Z,25.70
2022-11-10T23:51:12.900Z,25.70
2022-11-10T23:53:41.376Z,25.70
2022-11-10T23:56:13.722Z,25.70
2022-11-10T23:58:42.114Z,25.70
